Terminal Aerodrome Forecast
Issued by NWS

Home | Current Version | Previous Version | Text Only | Print | Product List | Glossary On
Versions: 1 2 3 4 5 6 7 8 9 10 11 12 13 14 15
156
FTUS46 KSTO 210539
TAFMHR
TAF
KMHR 210539Z 2106/2206 VRB03KT P6SM SCT200
     FM211200 VRB03KT 3SM BCFG BKN150
     FM211800 14008KT P6SM OVC120
     FM220500 12005KT 5SM -RA OVC050
      AMD NOT SKED=

USA.gov is the U.S. government's official web portal to all federal, state and local government web resources and services.